Time;durP1;ratioP1;P1;durP2;ratioP2;P2;SDS_P1;SDS_P2;PMS_P1;PMS_P2;Temp;Humidity;BMP_temperature;BMP_pressure;BME280_temperature;BME280_humidity;BME280_pressure;Samples;Min_cycle;Max_cycle;Signal;HPM_P1;HPM_P2
2023/08/16 00:01:18;;;;;;;10.50;7.20;;;;;;;20.44;79.52;99131.59;137556;1274;22126;-83
2023/08/16 00:04:21;;;;;;;493.10;61.10;;;;;;;20.40;80.02;99129.20;137490;1274;22740;-86
2023/08/16 00:07:23;;;;;;;17.80;9.20;;;;;;;20.33;80.48;99124.20;137566;1274;22051;-83
2023/08/16 00:10:25;;;;;;;8.30;7.20;;;;;;;20.24;81.01;99122.48;137536;1274;22276;-84
2023/08/16 00:13:28;;;;;;;10.20;7.90;;;;;;;20.08;81.04;99124.61;137570;1271;22134;-83
2023/08/16 00:16:30;;;;;;;8.00;6.90;;;;;;;19.96;81.67;99129.45;137505;1274;22442;-83
2023/08/16 00:19:33;;;;;;;9.50;7.70;;;;;;;19.88;82.15;99129.60;137510;1274;22126;-83
2023/08/16 00:22:35;;;;;;;9.20;7.40;;;;;;;19.78;82.50;99136.52;137581;1274;22568;-84
2023/08/16 00:25:38;;;;;;;11.10;7.50;;;;;;;19.70;82.78;99136.85;137537;1270;22048;-83
2023/08/16 00:28:41;;;;;;;8.80;7.20;;;;;;;19.65;83.24;99128.84;137508;1274;22146;-83
2023/08/16 00:31:44;;;;;;;8.90;7.60;;;;;;;19.61;83.61;99121.67;137525;1274;22166;-83
2023/08/16 00:34:46;;;;;;;13.00;8.10;;;;;;;19.54;83.90;99115.13;137490;1274;22271;-83
2023/08/16 00:37:49;;;;;;;9.10;7.20;;;;;;;19.45;84.69;99118.98;137534;1274;22108;-84
2023/08/16 00:40:51;;;;;;;14.30;7.40;;;;;;;19.43;85.59;99121.48;137552;1274;22073;-84
2023/08/16 00:43:54;;;;;;;13.60;7.20;;;;;;;19.47;85.92;99122.82;137526;1274;22599;-83
2023/08/16 00:46:56;;;;;;;8.70;7.20;;;;;;;19.55;85.54;99122.52;137496;1274;22051;-84
2023/08/16 00:49:59;;;;;;;13.80;7.30;;;;;;;19.63;85.23;99120.41;137532;1274;22237;-84
2023/08/16 00:53:01;;;;;;;30.10;10.30;;;;;;;19.71;84.70;99120.23;137514;1274;22060;-83
2023/08/16 00:56:04;;;;;;;11.70;7.80;;;;;;;19.78;84.31;99118.69;137531;1274;22233;-84
2023/08/16 00:59:06;;;;;;;11.70;7.30;;;;;;;19.81;84.34;99123.03;137562;1274;22047;-84
2023/08/16 01:02:09;;;;;;;8.60;7.40;;;;;;;19.82;84.42;99120.91;137524;1274;22053;-84
2023/08/16 01:05:11;;;;;;;9.10;7.70;;;;;;;19.79;84.68;99119.38;137560;1274;22205;-84
2023/08/16 01:08:13;;;;;;;8.40;7.20;;;;;;;19.74;85.06;99116.66;137570;1274;22091;-84
2023/08/16 01:11:16;;;;;;;10.60;7.80;;;;;;;19.63;85.23;99117.58;137554;1274;22614;-84
2023/08/16 01:14:19;;;;;;;61.60;11.20;;;;;;;19.58;85.41;99122.11;137509;1274;22059;-85
2023/08/16 01:17:21;;;;;;;13.80;8.50;;;;;;;19.54;85.95;99132.05;137568;1274;22052;-84
2023/08/16 01:20:24;;;;;;;11.80;7.30;;;;;;;19.43;86.20;99129.77;137521;1274;22191;-84
2023/08/16 01:23:26;;;;;;;19.50;7.70;;;;;;;19.29;86.28;99127.75;137563;1274;22212;-84
2023/08/16 01:26:29;;;;;;;10.20;7.80;;;;;;;19.18;86.70;99127.44;137576;1274;22185;-84
2023/08/16 01:29:31;;;;;;;11.30;7.70;;;;;;;19.09;86.96;99129.70;137566;1274;22077;-84
2023/08/16 01:32:34;;;;;;;8.50;7.70;;;;;;;19.02;87.49;99134.04;137683;1274;22061;-84
2023/08/16 01:35:36;;;;;;;14.20;7.80;;;;;;;18.96;87.66;99139.08;137833;1274;22059;-84
2023/08/16 01:38:39;;;;;;;76.60;12.60;;;;;;;18.94;87.96;99143.35;137855;1268;22091;-83
2023/08/16 01:41:41;;;;;;;14.40;9.30;;;;;;;18.94;88.47;99140.16;137882;1274;22341;-84
2023/08/16 01:44:44;;;;;;;16.80;10.00;;;;;;;18.95;88.56;99148.77;137902;1274;22086;-84
2023/08/16 01:47:46;;;;;;;11.90;9.80;;;;;;;18.97;89.33;99160.92;137688;1274;22279;-85
2023/08/16 01:50:48;;;;;;;15.60;11.80;;;;;;;18.97;89.85;99169.38;137708;1274;22118;-83
2023/08/16 01:53:52;;;;;;;176.50;19.40;;;;;;;18.95;89.89;99167.30;137663;1274;22132;-85
2023/08/16 01:56:54;;;;;;;16.40;9.90;;;;;;;18.88;89.51;99169.70;137677;1274;22469;-85
2023/08/16 02:00:00;;;;;;;16.70;10.40;;;;;;;18.80;89.58;99171.63;137671;1274;22418;-83
2023/08/16 02:03:03;;;;;;;19.60;11.40;;;;;;;18.73;89.67;99177.55;137720;1274;22082;-84
2023/08/16 02:06:06;;;;;;;348.70;44.00;;;;;;;18.61;90.06;99179.84;137649;1274;22134;-84
2023/08/16 02:09:08;;;;;;;31.50;13.80;;;;;;;18.56;90.79;99180.23;137573;1274;22278;-81
2023/08/16 02:12:11;;;;;;;24.00;10.60;;;;;;;18.51;90.85;99178.02;137504;1274;22078;-85
2023/08/16 02:15:13;;;;;;;15.70;11.20;;;;;;;18.41;91.13;99173.60;137514;1271;22075;-87
2023/08/16 02:18:16;;;;;;;17.50;11.00;;;;;;;18.40;91.95;99169.38;137523;1274;22071;-86
2023/08/16 02:21:18;;;;;;;13.60;10.10;;;;;;;18.34;91.64;99168.05;137505;1274;22071;-84
2023/08/16 02:24:21;;;;;;;12.00;10.50;;;;;;;18.28;92.47;99155.11;137538;1274;22083;-84
2023/08/16 02:27:23;;;;;;;15.80;11.00;;;;;;;18.31;93.35;99150.31;137553;1266;22107;-86
2023/08/16 02:30:25;;;;;;;13.20;10.30;;;;;;;18.29;93.01;99148.23;137589;1274;22002;-84
2023/08/16 02:33:28;;;;;;;14.10;10.20;;;;;;;18.18;92.90;99151.00;137571;1274;22313;-84
2023/08/16 02:36:33;;;;;;;15.30;10.80;;;;;;;18.04;93.21;99146.95;137547;1274;22059;-83
2023/08/16 02:39:35;;;;;;;23.50;10.90;;;;;;;17.98;93.83;99148.45;137549;1274;22362;-84
2023/08/16 02:42:38;;;;;;;18.20;10.40;;;;;;;17.98;94.32;99142.81;137574;1274;22233;-84
2023/08/16 02:45:41;;;;;;;16.80;10.60;;;;;;;17.98;94.59;99136.11;137518;1274;22103;-85
2023/08/16 02:48:43;;;;;;;12.60;10.60;;;;;;;18.00;94.63;99137.85;137549;1274;22061;-85
2023/08/16 02:51:46;;;;;;;14.80;9.70;;;;;;;17.95;94.48;99142.49;137564;1274;22226;-85
2023/08/16 02:54:48;;;;;;;17.70;9.80;;;;;;;17.90;94.85;99146.61;137529;1274;22108;-85
2023/08/16 02:57:52;;;;;;;13.00;10.40;;;;;;;17.86;95.04;99145.26;137590;1274;22331;-85
2023/08/16 03:00:54;;;;;;;13.10;10.00;;;;;;;17.83;95.20;99138.96;137563;1274;22054;-85
2023/08/16 03:03:57;;;;;;;12.40;9.30;;;;;;;17.84;96.07;99135.60;137524;1274;22250;-84
2023/08/16 03:06:59;;;;;;;9.90;8.90;;;;;;;17.86;96.51;99134.52;137608;1274;22573;-85
2023/08/16 03:10:03;;;;;;;12.30;9.50;;;;;;;17.87;96.93;99135.55;137540;1274;22247;-85
2023/08/16 03:13:06;;;;;;;12.00;9.30;;;;;;;17.93;97.17;99136.02;137550;1274;22392;-86
2023/08/16 03:16:08;;;;;;;11.50;9.50;;;;;;;17.95;96.53;99136.52;137541;1274;22526;-84
2023/08/16 03:19:11;;;;;;;45.10;12.60;;;;;;;18.01;96.43;99136.24;137553;1262;22591;-85
2023/08/16 03:22:13;;;;;;;13.00;9.60;;;;;;;18.07;96.38;99130.35;137545;1274;22209;-85
2023/08/16 03:25:16;;;;;;;43.30;10.90;;;;;;;18.12;95.88;99133.81;137526;1274;22582;-85
2023/08/16 03:28:19;;;;;;;12.30;9.10;;;;;;;18.29;98.85;99134.81;137522;1274;22209;-86
2023/08/16 03:31:21;;;;;;;36.90;12.10;;;;;;;19.22;100.00;99137.75;137511;1271;22772;-86
2023/08/16 03:34:24;;;;;;;17.70;10.90;;;;;;;20.09;100.00;99133.41;137532;1274;22096;-85
2023/08/16 03:37:26;;;;;;;10.60;9.60;;;;;;;20.64;94.55;99136.05;137577;1274;22577;-84
2023/08/16 03:40:30;;;;;;;13.00;9.80;;;;;;;20.85;89.85;99138.04;137514;1274;22566;-86
2023/08/16 03:43:35;;;;;;;20.80;10.40;;;;;;;20.96;88.27;99142.71;137494;1274;22181;-84
2023/08/16 03:46:39;;;;;;;12.00;9.60;;;;;;;21.15;85.54;99144.90;137549;1274;22273;-86
2023/08/16 03:49:41;;;;;;;12.40;8.90;;;;;;;21.22;84.26;99139.77;137548;1274;22105;-85
2023/08/16 03:52:44;;;;;;;30.80;10.00;;;;;;;21.25;83.21;99137.56;137521;1274;22761;-83
2023/08/16 03:55:46;;;;;;;20.60;9.20;;;;;;;21.26;82.85;99142.32;137462;1274;22234;-84
2023/08/16 03:58:49;;;;;;;48.60;11.90;;;;;;;21.30;82.75;99151.42;137469;1274;22143;-84
2023/08/16 04:01:51;;;;;;;27.70;10.60;;;;;;;21.44;82.41;99161.13;137522;1274;22640;-85
2023/08/16 04:04:54;;;;;;;15.70;8.50;;;;;;;21.56;81.67;99156.74;137547;1274;22099;-86
2023/08/16 04:07:56;;;;;;;15.40;9.20;;;;;;;21.61;80.82;99152.34;137567;1274;22208;-84
2023/08/16 04:10:59;;;;;;;10.60;9.20;;;;;;;21.67;80.71;99149.71;137506;1274;22543;-85
2023/08/16 04:14:02;;;;;;;22.90;9.20;;;;;;;21.75;80.44;99156.77;137506;1274;22118;-83
2023/08/16 04:17:04;;;;;;;20.30;10.10;;;;;;;21.85;80.13;99161.60;137460;1274;22777;-85
2023/08/16 04:20:07;;;;;;;36.40;10.50;;;;;;;21.95;79.44;99163.62;137473;1274;22119;-84
2023/08/16 04:23:10;;;;;;;8.30;7.50;;;;;;;21.99;78.96;99168.30;137489;1274;22207;-84
2023/08/16 04:26:12;;;;;;;24.00;8.80;;;;;;;22.01;79.02;99156.53;137503;1274;22110;-84
2023/08/16 04:29:15;;;;;;;14.90;8.10;;;;;;;22.11;78.87;99162.64;137444;1274;22214;-84
2023/08/16 04:32:17;;;;;;;20.70;8.50;;;;;;;22.20;78.44;99160.61;137417;1274;22107;-85
2023/08/16 04:35:20;;;;;;;15.90;8.00;;;;;;;22.35;78.01;99167.42;137451;1274;22859;-83
2023/08/16 04:38:22;;;;;;;13.30;8.00;;;;;;;22.57;77.38;99161.08;137438;1274;22119;-85
2023/08/16 04:41:25;;;;;;;24.90;9.10;;;;;;;22.71;76.91;99161.87;137470;1274;22104;-85
2023/08/16 04:44:27;;;;;;;37.00;9.80;;;;;;;22.94;76.31;99161.85;137450;1274;22097;-83
2023/08/16 04:47:30;;;;;;;25.40;8.90;;;;;;;23.24;75.74;99155.66;137403;1274;22367;-82
2023/08/16 04:50:32;;;;;;;58.60;11.80;;;;;;;23.47;74.66;99160.59;137496;1274;22223;-81
2023/08/16 04:53:38;;;;;;;34.70;10.20;;;;;;;23.66;73.53;99164.39;137539;1274;22095;-82
2023/08/16 04:56:40;;;;;;;44.60;10.00;;;;;;;23.86;72.79;99167.90;137515;1274;22097;-84
2023/08/16 04:59:43;;;;;;;34.70;10.70;;;;;;;23.94;72.77;99172.04;137558;1274;22113;-84
2023/08/16 05:02:45;;;;;;;205.10;23.50;;;;;;;24.12;72.75;99174.40;137522;1274;22124;-82
2023/08/16 05:05:48;;;;;;;576.60;56.90;;;;;;;24.27;72.61;99171.38;137540;1274;22114;-83
2023/08/16 05:08:52;;;;;;;27.70;10.30;;;;;;;24.34;70.63;99167.02;137509;1274;22198;-84
2023/08/16 05:11:54;;;;;;;27.30;10.10;;;;;;;24.03;71.50;99164.27;137514;1274;22092;-84
2023/08/16 05:14:57;;;;;;;29.20;9.60;;;;;;;24.14;72.10;99164.70;137451;1274;22101;-84
2023/08/16 05:18:00;;;;;;;12.40;7.90;;;;;;;24.27;72.75;99164.25;137584;1274;22144;-85
2023/08/16 05:21:03;;;;;;;56.50;13.80;;;;;;;24.46;72.61;99169.61;137539;1272;22149;-83
2023/08/16 05:24:06;;;;;;;38.80;10.10;;;;;;;24.78;72.20;99169.02;137434;1274;22381;-84
2023/08/16 05:27:12;;;;;;;69.50;44.10;;;;;;;25.06;71.39;99176.77;137529;1274;22136;-83
2023/08/16 05:30:14;;;;;;;192.90;20.90;;;;;;;25.20;70.56;99177.80;137497;1274;22111;-82
2023/08/16 05:33:17;;;;;;;60.90;11.60;;;;;;;25.36;69.69;99175.89;137446;1274;22202;-83
2023/08/16 05:36:19;;;;;;;76.40;14.50;;;;;;;25.57;68.69;99172.65;137473;1274;22241;-83
2023/08/16 05:39:23;;;;;;;112.30;15.20;;;;;;;25.76;67.76;99181.11;137486;1274;22853;-84
2023/08/16 05:42:30;;;;;;;48.00;11.20;;;;;;;25.86;67.19;99180.48;137292;1274;22138;-86
2023/08/16 05:45:35;;;;;;;29.50;9.10;;;;;;;25.90;66.73;99184.06;137448;1274;22157;-83
2023/08/16 05:48:37;;;;;;;42.10;11.60;;;;;;;25.82;65.77;99180.86;137452;1274;22230;-84
2023/08/16 05:51:40;;;;;;;18.20;7.60;;;;;;;25.95;65.60;99176.85;137490;1274;22730;-84
2023/08/16 05:54:42;;;;;;;17.90;9.20;;;;;;;26.07;64.30;99179.21;137518;1266;22222;-85
2023/08/16 05:57:45;;;;;;;24.90;8.80;;;;;;;26.22;63.98;99180.14;137482;1274;22215;-86
2023/08/16 06:00:52;;;;;;;20.70;9.00;;;;;;;26.29;63.89;99181.21;137474;1274;22339;-85
2023/08/16 06:03:54;;;;;;;47.20;13.80;;;;;;;26.46;63.53;99182.59;137528;1274;22096;-85
2023/08/16 06:06:57;;;;;;;52.80;11.00;;;;;;;26.66;62.80;99181.80;137428;1274;22221;-80
2023/08/16 06:09:59;;;;;;;70.60;12.30;;;;;;;26.72;62.29;99179.01;137447;1274;22139;-85
2023/08/16 06:13:05;;;;;;;47.00;10.70;;;;;;;26.91;62.10;99182.58;137296;1274;22081;-83
2023/08/16 06:16:07;;;;;;;97.90;15.60;;;;;;;27.08;60.89;99184.09;137450;1274;22226;-85
2023/08/16 06:19:17;;;;;;;89.10;14.10;;;;;;;27.16;60.72;99181.54;137415;1274;22346;-83
2023/08/16 06:22:28;;;;;;;108.90;41.20;;;;;;;27.28;59.88;99173.05;137391;1274;22102;-82
2023/08/16 06:25:34;;;;;;;42.90;10.80;;;;;;;27.34;59.69;99169.19;137362;1274;22107;-85
2023/08/16 06:28:46;;;;;;;36.50;9.70;;;;;;;27.43;59.57;99170.14;137429;1274;22087;-86
2023/08/16 06:31:48;;;;;;;38.50;10.10;;;;;;;27.59;58.96;99174.86;137430;1274;22739;-84
2023/08/16 06:34:53;;;;;;;38.10;13.30;;;;;;;27.73;59.19;99173.60;137332;1274;22249;-83
2023/08/16 06:37:57;;;;;;;18.90;9.70;;;;;;;27.90;58.95;99173.23;137349;1274;22219;-84
2023/08/16 06:40:59;;;;;;;25.00;9.30;;;;;;;28.03;58.62;99169.30;137440;1274;22278;-84
2023/08/16 06:44:04;;;;;;;12.40;7.60;;;;;;;28.13;58.58;99170.55;137388;1274;22108;-84
2023/08/16 06:47:06;;;;;;;33.90;9.90;;;;;;;28.26;58.41;99173.10;137446;1274;22264;-86
2023/08/16 06:50:09;;;;;;;27.20;9.30;;;;;;;28.40;58.65;99164.77;137331;1274;22132;-85
2023/08/16 06:53:11;;;;;;;65.00;13.00;;;;;;;28.60;58.12;99168.54;137467;1274;22144;-85
2023/08/16 06:56:14;;;;;;;44.90;10.80;;;;;;;28.70;57.38;99166.01;137426;1274;22198;-83
2023/08/16 06:59:16;;;;;;;43.70;11.70;;;;;;;28.77;57.33;99166.81;137465;1274;22132;-86
2023/08/16 07:02:20;;;;;;;27.30;10.20;;;;;;;28.83;57.25;99172.23;137463;1274;22144;-86
2023/08/16 07:05:33;;;;;;;270.80;241.40;;;;;;;28.90;57.08;99172.21;137430;1274;22179;-86
2023/08/16 07:08:35;;;;;;;276.40;209.70;;;;;;;28.74;57.29;99168.80;137443;1274;22134;-79
2023/08/16 07:11:38;;;;;;;549.50;57.20;;;;;;;28.55;57.78;99170.05;137443;1274;22250;-84
2023/08/16 07:14:41;;;;;;;193.70;23.10;;;;;;;28.45;58.61;99168.64;137394;1272;22160;-86
2023/08/16 07:17:57;;;;;;;130.70;16.40;;;;;;;28.62;58.56;99169.69;137439;1274;22677;-87
2023/08/16 07:21:00;;;;;;;14.20;8.20;;;;;;;28.69;58.20;99171.63;137431;1274;22104;-88
2023/08/16 07:24:02;;;;;;;9.20;6.60;;;;;;;28.81;57.49;99172.55;137444;1274;22512;-88
2023/08/16 07:27:05;;;;;;;;;;;;;;;28.74;56.77;99171.86;137505;1274;22204;-88
2023/08/16 07:30:08;;;;;;;40.30;9.10;;;;;;;28.91;56.70;99175.20;137445;1274;22252;-88
2023/08/16 07:33:11;;;;;;;11.10;7.20;;;;;;;29.09;55.96;99178.45;137488;1274;22123;-86
2023/08/16 07:36:13;;;;;;;8.50;6.40;;;;;;;29.09;55.50;99177.71;137421;1274;22135;-86
2023/08/16 07:39:16;;;;;;;15.20;7.20;;;;;;;29.22;55.81;99176.39;137431;1274;22840;-86
2023/08/16 07:42:19;;;;;;;10.80;6.50;;;;;;;29.42;55.18;99171.68;137414;1274;22706;-83
2023/08/16 07:45:21;;;;;;;9.20;6.40;;;;;;;29.42;54.84;99175.98;137402;1274;22122;-86
2023/08/16 07:48:29;;;;;;;24.60;9.20;;;;;;;29.46;55.10;99174.13;137435;1274;22188;-85
2023/08/16 07:51:32;;;;;;;9.30;7.00;;;;;;;29.68;55.15;99175.86;137442;1274;22125;-87
2023/08/16 07:54:35;;;;;;;8.20;6.10;;;;;;;29.73;54.33;99168.90;137435;1274;22633;-85
2023/08/16 07:57:38;;;;;;;;;;;;;;;29.69;54.11;99173.65;137430;1274;22910;-87
2023/08/16 08:00:42;;;;;;;9.20;7.10;;;;;;;29.61;54.27;99173.63;137381;1270;22098;-84
2023/08/16 08:03:46;;;;;;;8.60;6.70;;;;;;;29.76;54.97;99176.98;137424;1274;22091;-87
2023/08/16 08:06:49;;;;;;;6.90;6.30;;;;;;;30.05;54.56;99178.10;137419;1274;22765;-86
2023/08/16 08:09:52;;;;;;;33.90;7.80;;;;;;;30.22;54.44;99177.21;137456;1274;22086;-84
2023/08/16 08:12:55;;;;;;;29.20;8.60;;;;;;;30.50;54.08;99178.46;137534;1274;22123;-83
2023/08/16 08:15:58;;;;;;;7.30;6.60;;;;;;;30.77;53.68;99176.77;137539;1274;22132;-86
2023/08/16 08:19:01;;;;;;;11.00;6.20;;;;;;;30.98;52.92;99183.96;137530;1274;22300;-85
2023/08/16 08:22:08;;;;;;;9.80;6.50;;;;;;;31.09;52.79;99185.77;137599;1274;22226;-86
2023/08/16 08:38:46;;;;;;;7.90;5.90;;;;;;;32.37;49.83;99184.11;136840;1259;558626;-84
2023/08/16 08:41:50;;;;;;;7.60;5.60;;;;;;;32.71;48.61;99184.56;139145;1257;270414;-85
2023/08/16 08:44:51;;;;;;;11.30;6.10;;;;;;;32.66;48.13;99187.22;139695;1257;22356;-84
2023/08/16 08:47:53;;;;;;;6.90;5.80;;;;;;;32.54;47.74;99183.26;140757;1249;22321;-83
2023/08/16 08:50:54;;;;;;;21.90;7.40;;;;;;;32.43;47.93;99190.91;140781;1249;22269;-85
2023/08/16 08:53:56;;;;;;;18.50;6.70;;;;;;;32.45;48.10;99188.61;141127;1246;22323;-85
2023/08/16 08:56:57;;;;;;;6.40;5.40;;;;;;;32.67;47.68;99186.27;141099;1246;22285;-84
2023/08/16 08:59:58;;;;;;;67.70;41.60;;;;;;;32.92;45.02;99181.02;141051;1245;22255;-83
2023/08/16 09:03:01;;;;;;;13.00;7.30;;;;;;;32.95;43.53;99179.00;140883;1245;22828;-83
2023/08/16 09:06:03;;;;;;;12.20;7.20;;;;;;;32.85;42.71;99182.60;141095;1246;22322;-79
2023/08/16 09:09:20;;;;;;;8.50;5.70;;;;;;;32.82;43.94;99183.59;141040;1245;22361;-82
2023/08/16 09:12:23;;;;;;;283.90;28.70;;;;;;;33.00;44.58;99182.61;140736;1240;22518;-84
2023/08/16 09:15:25;;;;;;;9.10;5.80;;;;;;;33.21;44.39;99185.91;141008;1246;22374;-85
2023/08/16 09:18:26;;;;;;;16.60;6.20;;;;;;;33.41;43.57;99186.55;141108;1239;22326;-84
2023/08/16 09:21:28;;;;;;;6.80;5.10;;;;;;;33.68;42.05;99178.52;140816;1245;22563;-84
2023/08/16 09:24:30;;;;;;;6.30;5.10;;;;;;;33.77;41.58;99175.48;140709;1245;22521;-84
2023/08/16 09:27:32;;;;;;;11.90;5.80;;;;;;;33.67;41.35;99175.35;140858;1245;22333;-83
2023/08/16 09:30:36;;;;;;;1999.90;475.20;;;;;;;33.35;41.21;99174.02;141001;1245;22278;-81
2023/08/16 09:33:38;;;;;;;89.70;19.00;;;;;;;33.16;41.86;99173.98;141048;1246;22667;-83
2023/08/16 09:36:40;;;;;;;36.10;8.70;;;;;;;33.27;42.30;99183.13;140988;1243;22792;-83
2023/08/16 09:39:41;;;;;;;10.20;5.40;;;;;;;33.68;40.55;99183.56;141000;1246;22366;-81
2023/08/16 09:42:43;;;;;;;5.40;4.70;;;;;;;33.98;39.51;99176.73;141020;1246;22275;-82
2023/08/16 09:45:44;;;;;;;7.10;5.40;;;;;;;34.08;39.04;99177.72;141056;1240;22254;-82
2023/08/16 09:48:45;;;;;;;21.10;6.10;;;;;;;34.22;38.84;99176.45;140985;1245;22299;-84
2023/08/16 09:51:47;;;;;;;7.00;5.00;;;;;;;34.31;38.61;99177.37;141004;1246;22291;-84
2023/08/16 09:54:53;;;;;;;9.40;5.90;;;;;;;34.47;38.70;99175.14;141049;1246;22635;-82
2023/08/16 09:57:55;;;;;;;7.20;5.10;;;;;;;34.45;37.98;99175.28;141010;1246;22270;-83
2023/08/16 10:01:05;;;;;;;6.00;5.00;;;;;;;34.38;38.96;99178.96;140772;1245;23530;-82
2023/08/16 10:04:07;;;;;;;9.00;5.20;;;;;;;34.68;38.23;99179.41;140893;1246;22404;-83
2023/08/16 10:07:09;;;;;;;;;;;;;;;35.04;37.38;99177.34;141006;1246;22832;-82
2023/08/16 10:10:10;;;;;;;29.70;6.20;;;;;;;35.37;36.31;99174.77;141024;1246;22355;-84
2023/08/16 10:13:12;;;;;;;6.60;4.70;;;;;;;35.68;35.72;99172.66;141049;1245;22247;-83
2023/08/16 10:16:13;;;;;;;5.80;4.40;;;;;;;36.07;35.00;99168.95;141027;1245;22780;-83
2023/08/16 10:19:14;;;;;;;109.30;12.50;;;;;;;36.19;34.33;99172.04;141001;1246;22201;-84
2023/08/16 10:22:16;;;;;;;7.60;4.60;;;;;;;36.02;33.94;99174.64;140993;1246;23280;-82
2023/08/16 10:25:23;;;;;;;794.30;96.90;;;;;;;35.92;34.61;99173.48;140849;1246;22342;-84
2023/08/16 10:28:24;;;;;;;17.20;6.10;;;;;;;35.88;34.92;99180.86;141030;1246;22277;-83
2023/08/16 10:31:29;;;;;;;11.20;5.50;;;;;;;35.74;34.71;99180.35;140985;1246;22323;-84
2023/08/16 10:34:30;;;;;;;35.90;6.30;;;;;;;35.54;34.90;99180.23;140892;1246;22389;-83
2023/08/16 10:37:33;;;;;;;236.90;29.20;;;;;;;35.49;34.83;99174.64;140829;1245;22534;-85
2023/08/16 10:40:34;;;;;;;8.60;5.10;;;;;;;35.47;35.92;99171.71;140594;1245;22536;-83
2023/08/16 10:43:36;;;;;;;6.00;5.40;;;;;;;35.62;35.59;99168.14;140641;1246;22495;-84
2023/08/16 10:46:37;;;;;;;7.60;5.40;;;;;;;35.79;35.83;99172.30;140783;1243;22541;-84
2023/08/16 10:49:38;;;;;;;9.50;5.70;;;;;;;36.01;35.75;99172.70;140440;1242;22869;-84
2023/08/16 10:52:39;;;;;;;8.30;5.10;;;;;;;36.18;34.94;99170.64;140672;1246;22987;-82
2023/08/16 10:55:41;;;;;;;13.40;5.30;;;;;;;36.29;34.91;99170.45;140997;1246;22451;-83
2023/08/16 10:58:42;;;;;;;11.30;5.60;;;;;;;36.35;34.63;99172.38;140586;1246;22471;-83
2023/08/16 11:01:44;;;;;;;472.50;51.40;;;;;;;36.25;34.69;99166.18;140689;1246;22536;-84
2023/08/16 11:04:48;;;;;;;15.40;5.90;;;;;;;36.18;35.10;99164.88;140774;1246;22366;-83
2023/08/16 11:07:50;;;;;;;15.00;5.60;;;;;;;36.16;35.01;99168.13;141040;1246;22284;-84
2023/08/16 11:10:51;;;;;;;8.30;4.70;;;;;;;36.08;34.62;99168.30;140547;1246;22571;-83
2023/08/16 11:13:53;;;;;;;15.30;6.60;;;;;;;36.09;34.38;99166.53;141051;1246;22353;-81
2023/08/16 11:16:55;;;;;;;23.20;5.70;;;;;;;36.22;34.01;99173.71;141019;1246;22318;-83
2023/08/16 11:19:56;;;;;;;11.30;5.10;;;;;;;36.32;33.95;99175.95;141022;1246;22328;-83
2023/08/16 11:22:57;;;;;;;7.50;5.00;;;;;;;36.40;33.64;99172.70;141008;1246;22263;-84
2023/08/16 11:25:58;;;;;;;17.50;5.50;;;;;;;36.58;34.02;99171.11;140937;1242;22869;-84
2023/08/16 11:28:59;;;;;;;365.40;38.80;;;;;;;36.65;33.74;99170.66;140939;1246;22381;-81
2023/08/16 11:32:01;;;;;;;16.70;6.10;;;;;;;36.73;33.67;99171.23;140652;1246;22560;-84
2023/08/16 11:35:02;;;;;;;8.80;5.00;;;;;;;36.95;33.29;99169.91;140870;1246;22381;-84
2023/08/16 11:38:03;;;;;;;6.00;5.10;;;;;;;37.11;32.93;99166.80;140745;1240;23041;-85
2023/08/16 11:41:05;;;;;;;5.40;4.70;;;;;;;37.24;32.88;99159.23;141041;1246;22340;-82
2023/08/16 11:44:06;;;;;;;13.90;5.30;;;;;;;37.20;32.46;99159.45;141000;1245;22354;-84
2023/08/16 11:47:07;;;;;;;7.70;5.10;;;;;;;37.13;32.45;99157.89;141007;1246;23183;-83
2023/08/16 11:50:08;;;;;;;9.20;5.30;;;;;;;37.23;32.14;99156.44;140790;1246;22537;-83
2023/08/16 11:53:09;;;;;;;11.60;5.50;;;;;;;37.21;32.21;99150.41;141036;1246;22411;-84
2023/08/16 11:56:12;;;;;;;8.80;5.20;;;;;;;37.13;31.98;99149.35;140954;1246;22416;-83
2023/08/16 11:59:13;;;;;;;7.40;4.60;;;;;;;37.14;31.73;99152.55;140908;1246;22412;-83
2023/08/16 12:02:14;;;;;;;9.10;5.90;;;;;;;37.12;31.65;99153.45;140997;1246;22444;-82
2023/08/16 12:05:16;;;;;;;10.90;5.60;;;;;;;37.01;32.28;99153.77;140656;1246;22918;-85
2023/08/16 12:08:18;;;;;;;7.90;5.30;;;;;;;37.24;32.59;99153.69;141087;1246;22378;-83
2023/08/16 12:11:19;;;;;;;;;;;;;;;37.31;33.09;99147.95;141056;1246;22490;-84
2023/08/16 12:14:20;;;;;;;6.80;5.50;;;;;;;37.17;33.67;99150.30;140767;1246;22391;-83
2023/08/16 12:17:21;;;;;;;20.70;6.40;;;;;;;37.10;33.66;99154.16;141002;1246;22281;-85
2023/08/16 12:20:24;;;;;;;16.20;5.70;;;;;;;37.07;33.70;99150.50;140851;1246;22972;-85
2023/08/16 12:23:26;;;;;;;5.40;5.00;;;;;;;36.91;33.52;99148.16;140911;1246;22865;-84
2023/08/16 12:26:27;;;;;;;6.80;5.30;;;;;;;36.67;33.66;99143.06;141026;1246;23073;-85
2023/08/16 12:29:29;;;;;;;7.70;5.00;;;;;;;36.54;34.37;99140.33;141019;1245;22294;-84
2023/08/16 12:32:30;;;;;;;;;;;;;;;36.53;35.11;99134.77;141023;1246;22333;-86
2023/08/16 12:35:31;;;;;;;10.00;5.90;;;;;;;36.40;35.39;99135.73;140588;1246;22376;-84
2023/08/16 12:38:32;;;;;;;9.40;6.40;;;;;;;36.06;36.43;99140.89;140743;1246;22513;-85
2023/08/16 12:41:36;;;;;;;10.10;6.00;;;;;;;35.91;37.14;99148.57;141027;1246;22331;-84
2023/08/16 12:44:37;;;;;;;29.00;9.40;;;;;;;35.84;37.47;99151.98;141046;1246;22350;-85
2023/08/16 12:47:38;;;;;;;20.40;7.50;;;;;;;35.83;37.66;99146.04;140835;1246;22530;-84
2023/08/16 12:50:39;;;;;;;7.70;6.10;;;;;;;35.87;37.87;99141.93;140983;1246;23263;-83
2023/08/16 12:53:41;;;;;;;16.70;6.80;;;;;;;35.82;38.33;99141.97;140915;1246;22784;-84
2023/08/16 12:56:42;;;;;;;48.90;10.20;;;;;;;35.81;38.38;99138.29;140718;1246;22547;-84
2023/08/16 12:59:46;;;;;;;7.80;6.40;;;;;;;35.57;39.04;99140.67;140996;1246;23252;-84
2023/08/16 13:02:47;;;;;;;7.90;6.80;;;;;;;35.52;39.80;99143.11;141106;1246;22813;-85
2023/08/16 13:05:51;;;;;;;9.00;7.20;;;;;;;35.38;40.62;99139.74;140898;1246;22395;-84
2023/08/16 13:08:52;;;;;;;9.70;7.70;;;;;;;35.34;41.47;99139.37;140830;1246;22531;-83
2023/08/16 13:11:53;;;;;;;8.40;7.50;;;;;;;35.16;42.05;99141.79;141026;1246;22352;-85
2023/08/16 13:14:54;;;;;;;8.20;7.40;;;;;;;35.18;42.68;99144.31;140966;1246;22360;-85
2023/08/16 13:17:55;;;;;;;49.30;9.70;;;;;;;35.24;42.65;99144.78;141052;1246;22196;-81
2023/08/16 13:20:58;;;;;;;13.00;7.80;;;;;;;35.20;42.69;99142.16;141011;1246;22297;-81
2023/08/16 13:24:00;;;;;;;26.20;9.30;;;;;;;35.23;42.67;99135.98;141047;1245;22337;-84
2023/08/16 13:27:01;;;;;;;8.60;7.40;;;;;;;35.13;42.67;99137.33;140896;1246;22525;-83
2023/08/16 13:30:03;;;;;;;15.30;6.90;;;;;;;34.91;42.04;99138.69;141010;1245;22302;-84
2023/08/16 13:33:04;;;;;;;18.50;8.30;;;;;;;34.69;41.67;99132.34;141084;1246;22687;-87
2023/08/16 13:36:05;;;;;;;11.20;7.70;;;;;;;34.58;42.25;99131.65;141059;1245;22297;-85
2023/08/16 13:39:06;;;;;;;9.10;7.50;;;;;;;34.48;42.59;99134.06;140930;1246;22869;-82
2023/08/16 13:42:07;;;;;;;24.30;8.50;;;;;;;34.32;42.07;99134.11;140890;1243;22509;-86
2023/08/16 13:45:08;;;;;;;11.20;7.60;;;;;;;34.13;42.46;99137.20;140655;1246;22507;-84
2023/08/16 13:48:10;;;;;;;8.60;7.10;;;;;;;33.97;43.23;99134.74;140565;1246;25258;-85
2023/08/16 13:51:11;;;;;;;10.10;7.50;;;;;;;33.99;43.84;99134.60;140626;1246;22401;-84
2023/08/16 13:54:12;;;;;;;17.40;7.60;;;;;;;34.17;43.82;99137.63;140513;1246;22412;-84
2023/08/16 13:57:13;;;;;;;8.20;6.80;;;;;;;34.21;43.58;99143.10;140564;1246;25257;-84
2023/08/16 14:00:14;;;;;;;9.20;7.30;;;;;;;34.07;43.26;99147.85;140972;1246;22775;-82
2023/08/16 14:03:18;;;;;;;12.20;7.70;;;;;;;33.85;43.31;99146.20;140515;1245;22220;-85
2023/08/16 14:06:20;;;;;;;10.60;7.30;;;;;;;33.73;43.76;99146.91;140434;1246;22548;-83
2023/08/16 14:09:21;;;;;;;10.80;8.30;;;;;;;33.53;44.12;99147.70;140915;1246;25260;-85
2023/08/16 14:12:22;;;;;;;20.50;8.90;;;;;;;33.53;44.70;99146.95;140359;1245;22393;-85